createdAt,value
2019-02-23T00:00:09.379Z,102531.95
2019-02-23T00:02:41.113Z,102530.78
2019-02-23T00:05:17.121Z,102531.25
2019-02-23T00:07:41.091Z,102526.04
2019-02-23T00:10:14.903Z,102520.16
2019-02-23T00:12:39.565Z,102521.84
2019-02-23T00:15:06.777Z,102528.34
2019-02-23T00:17:34.035Z,102529.62
2019-02-23T00:20:01.491Z,102540.64
2019-02-23T00:22:29.689Z,102530.04
2019-02-23T00:25:04.061Z,102525.67
2019-02-23T00:27:28.535Z,102528.48
2019-02-23T00:29:55.673Z,102527.83
2019-02-23T00:32:22.757Z,102531.59
2019-02-23T00:34:49.819Z,102539.49
2019-02-23T00:37:16.944Z,102541.02
2019-02-23T00:39:48.911Z,102555.68
2019-02-23T00:42:16.349Z,102552.19
2019-02-23T00:44:43.869Z,102552.30
2019-02-23T00:47:11.321Z,102551.74
2019-02-23T00:49:38.749Z,102553.47
2019-02-23T00:52:07.822Z,102553.83
2019-02-23T00:54:38.846Z,102548.16
2019-02-23T00:57:07.809Z,102538.11
2019-02-23T00:59:39.193Z,102531.16
2019-02-23T01:02:11.958Z,102527.64
2019-02-23T01:04:37.500Z,102530.54
2019-02-23T01:07:04.654Z,102535.28
2019-02-23T01:09:31.737Z,102541.03
2019-02-23T01:11:58.761Z,102541.11
2019-02-23T01:14:25.782Z,102540.04
2019-02-23T01:17:01.336Z,102542.86
2019-02-23T01:19:47.379Z,102547.55
2019-02-23T01:22:06.076Z,102553.17
2019-02-23T01:24:33.181Z,102558.05
2019-02-23T01:27:00.514Z,102552.08
2019-02-23T01:29:32.632Z,102542.59
2019-02-23T01:32:03.480Z,102535.23
2019-02-23T01:34:30.634Z,102533.58
2019-02-23T01:36:57.876Z,102540.64
2019-02-23T01:39:25.368Z,102548.55
2019-02-23T01:41:52.514Z,102542.55
2019-02-23T01:44:24.574Z,102527.11
2019-02-23T01:46:55.085Z,102523.23
2019-02-23T01:49:25.407Z,102530.67
2019-02-23T01:52:07.434Z,102527.30
2019-02-23T01:54:31.284Z,102517.86
2019-02-23T01:57:04.183Z,102517.58
2019-02-23T01:59:31.364Z,102525.03
2019-02-23T02:01:58.501Z,102522.52
2019-02-23T02:04:31.656Z,102516.52
2019-02-23T02:06:58.726Z,102504.35
2019-02-23T02:09:27.359Z,102492.52
2019-02-23T02:11:57.633Z,102489.64
2019-02-23T02:14:24.787Z,102491.30
2019-02-23T02:16:51.926Z,102485.97
2019-02-23T02:19:19.022Z,102472.48
2019-02-23T02:21:46.383Z,102471.70
2019-02-23T02:24:17.063Z,102466.12
2019-02-23T02:26:45.759Z,102461.06
2019-02-23T02:29:28.174Z,102447.55
2019-02-23T02:31:46.353Z,102428.55
2019-02-23T02:34:13.869Z,102420.75
2019-02-23T02:36:43.830Z,102417.45
2019-02-23T02:39:13.940Z,102426.82
2019-02-23T02:41:42.680Z,102429.30
2019-02-23T02:44:17.126Z,102450.15
2019-02-23T02:46:45.226Z,102464.73
2019-02-23T02:49:12.611Z,102465.52
2019-02-23T02:51:44.623Z,102466.95
2019-02-23T02:54:22.299Z,102464.23
2019-02-23T02:56:46.416Z,102465.50
2019-02-23T02:59:17.065Z,102457.42
2019-02-23T03:01:46.138Z,102458.56
2019-02-23T03:04:13.703Z,102451.59
2019-02-23T03:06:47.640Z,102454.02
2019-02-23T03:09:14.759Z,102464.27
2019-02-23T03:11:42.275Z,102464.64
2019-02-23T03:14:09.886Z,102449.78
2019-02-23T03:16:37.321Z,102458.84
2019-02-23T03:19:10.186Z,102459.16
2019-02-23T03:21:37.305Z,102453.35
2019-02-23T03:24:04.471Z,102449.78
2019-02-23T03:26:31.882Z,102453.07
2019-02-23T03:28:59.463Z,102453.07
2019-02-23T03:31:27.085Z,102450.66
2019-02-23T03:33:55.470Z,102448.52
2019-02-23T03:36:30.147Z,102444.76
2019-02-23T03:38:57.317Z,102442.44
2019-02-23T03:41:26.360Z,102435.70
2019-02-23T03:43:58.134Z,102444.84
2019-02-23T03:46:29.414Z,102448.70
2019-02-23T03:48:56.648Z,102442.25
2019-02-23T03:51:28.740Z,102445.07
2019-02-23T03:53:57.754Z,102448.83
2019-02-23T03:56:24.903Z,102436.85
2019-02-23T03:58:59.005Z,102442.45
2019-02-23T04:01:28.893Z,102439.94
2019-02-23T04:04:03.269Z,102442.05
2019-02-23T04:06:32.187Z,102432.52
2019-02-23T04:09:07.656Z,102423.53
2019-02-23T04:11:37.887Z,102431.05
2019-02-23T04:14:05.585Z,102444.28
2019-02-23T04:16:32.664Z,102444.55
2019-02-23T04:18:59.905Z,102441.84
2019-02-23T04:21:27.328Z,102439.34
2019-02-23T04:23:55.272Z,102435.10
2019-02-23T04:26:25.268Z,102439.55
2019-02-23T04:28:52.622Z,102435.59
2019-02-23T04:31:22.530Z,102440.01
2019-02-23T04:33:49.506Z,102437.20
2019-02-23T04:36:21.540Z,102441.42
2019-02-23T04:38:48.470Z,102442.19
2019-02-23T04:41:23.044Z,102439.48
2019-02-23T04:43:49.874Z,102441.42
2019-02-23T04:46:20.866Z,102437.45
2019-02-23T04:48:52.008Z,102438.61
2019-02-23T04:51:26.722Z,102422.72
2019-02-23T04:54:01.724Z,102397.36
2019-02-23T04:56:29.380Z,102390.73
2019-02-23T04:58:56.447Z,102384.95
2019-02-23T05:01:24.060Z,102389.29
2019-02-23T05:03:51.158Z,102388.03
2019-02-23T05:06:18.654Z,102388.16
2019-02-23T05:08:49.828Z,102381.59
2019-02-23T05:11:17.972Z,102370.88
2019-02-23T05:13:45.312Z,102367.91
2019-02-23T05:16:12.374Z,102363.45
2019-02-23T05:18:39.426Z,102372.80
2019-02-23T05:21:06.417Z,102368.06
2019-02-23T05:23:35.931Z,102376.26
2019-02-23T05:26:03.830Z,102370.08
2019-02-23T05:28:31.235Z,102377.50
2019-02-23T05:31:01.721Z,102390.67
2019-02-23T05:33:37.737Z,102391.73
2019-02-23T05:36:12.508Z,102400.52
2019-02-23T05:38:41.089Z,102409.96
2019-02-23T05:41:08.188Z,102407.45
2019-02-23T05:43:35.275Z,102416.03
2019-02-23T05:46:02.487Z,102425.55
2019-02-23T05:48:34.159Z,102426.22
2019-02-23T05:51:01.742Z,102423.72
2019-02-23T05:53:33.214Z,102417.73
2019-02-23T05:56:01.485Z,102429.20
2019-02-23T05:58:30.186Z,102425.14
2019-02-23T06:00:57.211Z,102422.64
2019-02-23T06:03:44.307Z,102431.13
2019-02-23T06:06:02.159Z,102449.16
2019-02-23T06:08:30.642Z,102452.40
2019-02-23T06:11:00.272Z,102443.32
2019-02-23T06:13:33.933Z,102446.58
2019-02-23T06:16:01.399Z,102444.13
2019-02-23T06:18:38.619Z,102441.93
2019-02-23T06:21:15.630Z,102440.45
2019-02-23T06:23:42.780Z,102438.06
2019-02-23T06:26:09.842Z,102444.33
2019-02-23T06:28:38.556Z,102447.03
2019-02-23T06:31:11.572Z,102456.98
2019-02-23T06:33:39.908Z,102456.43
2019-02-23T06:36:09.707Z,102468.27
2019-02-23T06:38:39.509Z,102478.80
2019-02-23T06:41:11.498Z,102479.70
2019-02-23T06:43:36.763Z,102482.40
2019-02-23T06:46:05.872Z,102485.88
2019-02-23T06:48:34.923Z,102501.69
2019-02-23T06:51:03.675Z,102501.08
2019-02-23T06:53:39.075Z,102490.38
2019-02-23T06:56:06.737Z,102488.85
2019-02-23T06:58:42.692Z,102506.48
2019-02-23T07:01:10.849Z,102501.94
2019-02-23T07:06:28.686Z,102516.22
2019-02-23T07:08:55.724Z,102527.12
2019-02-23T07:11:37.209Z,102542.88
2019-02-23T07:13:56.679Z,102550.28
2019-02-23T07:16:31.484Z,102557.45
2019-02-23T07:19:06.068Z,102572.03
2019-02-23T07:21:33.213Z,102568.04
2019-02-23T07:24:05.384Z,102567.32
2019-02-23T07:26:33.427Z,102567.91
2019-02-23T07:29:01.116Z,102570.34
2019-02-23T07:31:32.804Z,102585.30
2019-02-23T07:34:09.182Z,102592.55
2019-02-23T07:36:45.637Z,102595.06
2019-02-23T07:39:13.006Z,102593.63
2019-02-23T07:41:40.430Z,102603.17
2019-02-23T07:44:07.916Z,102611.77
2019-02-23T07:46:36.622Z,102613.03
2019-02-23T07:49:03.731Z,102617.86
2019-02-23T07:51:30.865Z,102603.45
2019-02-23T07:54:00.950Z,102584.25
2019-02-23T07:56:34.914Z,102582.20
2019-02-23T07:59:01.408Z,102587.36
2019-02-23T08:01:28.825Z,102593.51
2019-02-23T08:03:55.910Z,102595.92
2019-02-23T08:06:24.938Z,102600.06
2019-02-23T08:08:52.902Z,102598.41
2019-02-23T08:11:20.256Z,102596.96
2019-02-23T08:13:49.435Z,102595.61
2019-02-23T08:16:18.158Z,102598.78
2019-02-23T08:18:46.845Z,102603.20
2019-02-23T08:21:15.768Z,102603.20
2019-02-23T08:23:42.943Z,102604.27
2019-02-23T08:26:11.581Z,102612.47
2019-02-23T08:28:38.924Z,102610.89
2019-02-23T08:31:06.390Z,102605.20
2019-02-23T08:33:33.621Z,102599.38
2019-02-23T08:36:00.567Z,102609.13
2019-02-23T08:38:27.941Z,102616.75
2019-02-23T08:40:56.715Z,102628.89
2019-02-23T08:43:27.860Z,102637.00
2019-02-23T08:45:54.901Z,102648.42
2019-02-23T08:48:22.588Z,102648.13
2019-02-23T08:50:52.535Z,102652.14
2019-02-23T08:53:19.515Z,102649.68
2019-02-23T08:55:50.080Z,102641.39
2019-02-23T08:58:17.300Z,102631.15
2019-02-23T09:00:45.986Z,102628.80
2019-02-23T09:03:14.623Z,102612.57
2019-02-23T09:05:41.814Z,102606.19
2019-02-23T09:08:12.377Z,102600.34
2019-02-23T09:10:41.162Z,102595.25
2019-02-23T09:13:08.446Z,102581.37
2019-02-23T09:18:17.193Z,102571.97
2019-02-23T09:20:46.927Z,102574.66
2019-02-23T09:23:50.355Z,102567.05
2019-02-23T09:25:57.819Z,102572.30
2019-02-23T09:28:25.207Z,102575.70
2019-02-23T09:30:52.642Z,102587.46
2019-02-23T09:33:21.281Z,102589.13
2019-02-23T09:35:53.848Z,102579.14
2019-02-23T09:38:20.011Z,102585.53
2019-02-23T09:40:47.476Z,102588.92
2019-02-23T09:43:17.941Z,102583.39
2019-02-23T09:45:45.336Z,102577.42
2019-02-23T09:48:15.878Z,102590.66
2019-02-23T09:50:43.088Z,102582.60
2019-02-23T09:53:11.593Z,102579.70
2019-02-23T09:55:38.889Z,102574.33
2019-02-23T09:58:06.122Z,102577.72
2019-02-23T10:00:33.392Z,102561.79
2019-02-23T10:03:00.483Z,102557.53
2019-02-23T10:05:27.417Z,102557.15
2019-02-23T10:08:00.191Z,102562.45
2019-02-23T10:10:25.495Z,102545.72
2019-02-23T10:12:53.567Z,102543.69
2019-02-23T10:15:20.580Z,102541.71
2019-02-23T10:17:47.558Z,102539.19
2019-02-23T10:20:14.566Z,102534.72
2019-02-23T10:22:42.934Z,102536.13
2019-02-23T10:25:12.327Z,102521.61
2019-02-23T10:27:39.281Z,102505.88
2019-02-23T10:30:06.665Z,102511.22
2019-02-23T10:32:34.194Z,102502.08
2019-02-23T10:35:02.486Z,102503.47
2019-02-23T10:37:31.558Z,102495.54
2019-02-23T10:39:58.566Z,102491.00
2019-02-23T10:42:25.584Z,102491.33
2019-02-23T10:44:52.959Z,102488.20
2019-02-23T10:47:20.298Z,102486.94
2019-02-23T10:49:47.301Z,102476.84
2019-02-23T10:52:14.308Z,102479.11
2019-02-23T10:54:41.366Z,102478.26
2019-02-23T10:57:08.394Z,102477.13
2019-02-23T10:59:35.456Z,102481.22
2019-02-23T11:02:02.504Z,102463.84
2019-02-23T11:04:29.873Z,102458.19
2019-02-23T11:06:57.432Z,102451.53
2019-02-23T11:09:24.941Z,102457.23
2019-02-23T11:11:52.330Z,102459.52
2019-02-23T11:14:22.784Z,102453.22
2019-02-23T11:16:49.770Z,102455.71
2019-02-23T11:19:17.215Z,102455.61
2019-02-23T11:22:01.862Z,102455.01
2019-02-23T11:24:29.225Z,102447.22
2019-02-23T11:27:25.549Z,102443.82
2019-02-23T11:29:40.505Z,102439.72
2019-02-23T11:32:07.956Z,102435.79
2019-02-23T11:34:35.273Z,102438.77
2019-02-23T11:37:02.238Z,102429.31
2019-02-23T11:39:29.247Z,102424.75
2019-02-23T11:41:58.121Z,102428.34
2019-02-23T11:44:25.484Z,102422.66
2019-02-23T11:47:00.291Z,102420.27
2019-02-23T11:49:21.026Z,102418.90
2019-02-23T11:51:48.004Z,102415.60
2019-02-23T11:54:15.254Z,102418.19
2019-02-23T11:56:42.167Z,102417.31
2019-02-23T11:59:10.535Z,102406.97
2019-02-23T12:01:37.503Z,102404.19
2019-02-23T12:04:06.137Z,102395.80
2019-02-23T12:06:33.194Z,102394.16
2019-02-23T12:09:00.492Z,102388.91
2019-02-23T12:11:29.151Z,102392.31
2019-02-23T12:13:56.265Z,102394.52
2019-02-23T12:16:23.282Z,102390.86
2019-02-23T12:18:50.640Z,102376.77
2019-02-23T12:21:17.879Z,102386.07
2019-02-23T12:23:44.995Z,102379.43
2019-02-23T12:26:11.957Z,102370.52
2019-02-23T12:28:39.079Z,102369.71
2019-02-23T12:31:06.416Z,102360.02
2019-02-23T12:33:33.721Z,102348.55
2019-02-23T12:36:01.077Z,102353.41
2019-02-23T12:38:28.445Z,102351.50
2019-02-23T12:40:55.457Z,102361.34
2019-02-23T12:43:23.521Z,102352.89
2019-02-23T12:45:50.456Z,102351.30
2019-02-23T12:48:17.985Z,102357.19
2019-02-23T12:50:45.318Z,102361.65
2019-02-23T12:53:12.691Z,102371.44
2019-02-23T12:55:39.858Z,102379.80
2019-02-23T12:58:06.792Z,102379.00
2019-02-23T13:00:34.237Z,102371.43
2019-02-23T13:03:01.731Z,102366.22
2019-02-23T13:05:28.723Z,102368.02
2019-02-23T13:07:55.665Z,102367.27
2019-02-23T13:10:22.647Z,102366.48
2019-02-23T13:12:49.966Z,102363.47
2019-02-23T13:15:16.989Z,102362.20
2019-02-23T13:17:44.398Z,102367.20
2019-02-23T13:20:11.382Z,102375.16
2019-02-23T13:22:39.502Z,102371.16
2019-02-23T13:25:06.990Z,102378.36
2019-02-23T13:27:33.971Z,102384.22
2019-02-23T13:30:00.916Z,102379.50
2019-02-23T13:32:28.535Z,102384.09
2019-02-23T13:34:55.456Z,102378.23
2019-02-23T13:37:22.790Z,102370.64
2019-02-23T13:39:49.735Z,102379.68
2019-02-23T13:42:16.988Z,102381.81
2019-02-23T13:44:44.016Z,102381.94
2019-02-23T13:47:11.189Z,102387.80
2019-02-23T13:49:38.152Z,102387.39
2019-02-23T13:52:06.438Z,102387.14
2019-02-23T13:54:39.002Z,102385.13
2019-02-23T13:57:05.713Z,102374.19
2019-02-23T13:59:32.664Z,102378.87
2019-02-23T14:02:01.049Z,102371.72
2019-02-23T14:04:28.137Z,102376.84
2019-02-23T14:06:55.150Z,102377.71
2019-02-23T14:09:22.348Z,102370.25
2019-02-23T14:11:51.386Z,102359.39
2019-02-23T14:14:17.939Z,102357.81
2019-02-23T14:16:45.208Z,102357.74
2019-02-23T14:19:12.214Z,102346.12
2019-02-23T14:21:39.619Z,102338.37
2019-02-23T14:24:06.590Z,102333.20
2019-02-23T14:26:33.586Z,102321.24
2019-02-23T14:29:00.613Z,102317.20
2019-02-23T14:31:27.642Z,102305.47
2019-02-23T14:33:54.939Z,102301.97
2019-02-23T14:36:23.430Z,102301.40
2019-02-23T14:38:50.702Z,102298.09
2019-02-23T14:41:17.710Z,102288.25
2019-02-23T14:43:44.658Z,102293.30
2019-02-23T14:46:11.780Z,102304.13
2019-02-23T14:48:43.327Z,102301.35
2019-02-23T14:51:10.370Z,102298.44
2019-02-23T14:53:37.683Z,102300.64
2019-02-23T14:56:05.014Z,102304.00
2019-02-23T14:58:31.975Z,102298.02
2019-02-23T15:00:59.346Z,102305.14
2019-02-23T15:03:26.322Z,102308.34
2019-02-23T15:05:53.625Z,102294.02
2019-02-23T15:08:20.991Z,102288.64
2019-02-23T15:10:48.394Z,102278.66
2019-02-23T15:13:15.495Z,102278.33
2019-02-23T15:15:42.858Z,102284.20
2019-02-23T15:18:10.207Z,102282.51
2019-02-23T15:20:37.465Z,102280.73
2019-02-23T15:23:04.808Z,102279.34
2019-02-23T15:25:32.057Z,102263.24
2019-02-23T15:27:59.426Z,102259.45
2019-02-23T15:30:29.620Z,102258.31
2019-02-23T15:32:55.784Z,102266.34
2019-02-23T15:35:22.748Z,102259.72
2019-02-23T15:37:56.317Z,102269.31
2019-02-23T15:40:23.711Z,102279.42
2019-02-23T15:42:50.809Z,102279.30
2019-02-23T15:45:17.786Z,102283.30
2019-02-23T15:47:44.838Z,102281.22
2019-02-23T15:50:13.622Z,102272.05
2019-02-23T15:52:40.626Z,102261.25
2019-02-23T15:55:07.652Z,102260.59
2019-02-23T15:57:34.858Z,102264.38
2019-02-23T16:00:01.940Z,102265.71
2019-02-23T16:02:29.659Z,102266.91
2019-02-23T16:04:56.573Z,102277.59
2019-02-23T16:07:23.846Z,102277.72
2019-02-23T16:09:50.861Z,102277.72
2019-02-23T16:12:17.769Z,102268.42
2019-02-23T16:14:44.749Z,102272.96
2019-02-23T16:17:12.039Z,102278.86
2019-02-23T16:19:39.008Z,102268.42
2019-02-23T16:22:06.078Z,102265.62
2019-02-23T16:24:33.017Z,102264.88
2019-02-23T16:27:00.005Z,102269.99
2019-02-23T16:29:26.979Z,102271.80
2019-02-23T16:31:53.935Z,102276.86
2019-02-23T16:34:20.921Z,102284.77
2019-02-23T16:36:48.258Z,102287.80
2019-02-23T16:39:15.253Z,102290.16
2019-02-23T16:41:42.676Z,102287.44
2019-02-23T16:44:09.649Z,102285.66
2019-02-23T16:46:40.388Z,102281.59
2019-02-23T16:49:07.342Z,102288.14
2019-02-23T16:51:34.610Z,102291.57
2019-02-23T16:54:01.602Z,102286.39
2019-02-23T16:56:28.579Z,102286.75
2019-02-23T16:58:55.439Z,102288.34
2019-02-23T17:01:22.910Z,102282.61
2019-02-23T17:03:49.913Z,102284.02
2019-02-23T17:06:16.850Z,102286.90
2019-02-23T17:08:44.057Z,102285.34
2019-02-23T17:11:11.044Z,102288.03
2019-02-23T17:13:38.119Z,102295.13
2019-02-23T17:16:05.086Z,102287.29
2019-02-23T17:18:32.084Z,102286.03
2019-02-23T17:20:59.433Z,102293.73
2019-02-23T17:23:26.364Z,102285.96
2019-02-23T17:26:03.710Z,102286.54
2019-02-23T17:28:23.742Z,102293.73
2019-02-23T17:30:50.705Z,102286.90
2019-02-23T17:33:17.767Z,102295.25
2019-02-23T17:35:44.723Z,102297.66
2019-02-23T17:38:16.155Z,102298.91
2019-02-23T17:40:40.762Z,102289.06
2019-02-23T17:43:07.736Z,102281.79
2019-02-23T17:45:35.094Z,102274.41
2019-02-23T17:48:02.112Z,102278.39
2019-02-23T17:50:29.393Z,102275.80
2019-02-23T17:52:56.646Z,102264.37
2019-02-23T17:55:23.630Z,102259.31
2019-02-23T17:57:50.621Z,102258.45
2019-02-23T18:00:17.586Z,102266.57
2019-02-23T18:02:44.880Z,102265.95
2019-02-23T18:05:11.799Z,102270.29
2019-02-23T18:07:38.723Z,102267.76
2019-02-23T18:10:05.734Z,102266.13
2019-02-23T18:12:33.103Z,102268.39
2019-02-23T18:15:00.516Z,102270.64
2019-02-23T18:17:27.525Z,102271.77
2019-02-23T18:19:54.567Z,102260.34
2019-02-23T18:22:21.597Z,102262.70
2019-02-23T18:24:49.324Z,102270.07
2019-02-23T18:27:16.467Z,102267.55
2019-02-23T18:29:43.508Z,102272.80
2019-02-23T18:32:10.556Z,102276.66
2019-02-23T18:34:37.599Z,102278.92
2019-02-23T18:37:04.961Z,102281.86
2019-02-23T18:39:32.034Z,102280.11
2019-02-23T18:41:59.255Z,102277.59
2019-02-23T18:44:26.514Z,102278.75
2019-02-23T18:46:53.452Z,102279.04
2019-02-23T18:49:20.488Z,102279.22
2019-02-23T18:51:47.831Z,102285.84
2019-02-23T18:54:14.826Z,102271.38
2019-02-23T18:56:43.309Z,102265.07
2019-02-23T18:59:10.343Z,102268.44
2019-02-23T19:01:37.726Z,102268.69
2019-02-23T19:04:05.812Z,102271.06
2019-02-23T19:06:33.381Z,102265.36
2019-02-23T19:09:00.619Z,102266.80
2019-02-23T19:11:29.364Z,102261.23
2019-02-23T19:13:56.440Z,102254.05
2019-02-23T19:16:23.465Z,102260.87
2019-02-23T19:18:50.378Z,102257.23
2019-02-23T19:21:17.651Z,102246.90
2019-02-23T19:23:45.283Z,102247.77
2019-02-23T19:26:12.486Z,102241.86
2019-02-23T19:28:43.177Z,102243.67
2019-02-23T19:31:08.328Z,102242.11
2019-02-23T19:33:35.346Z,102239.31
2019-02-23T19:36:02.352Z,102236.97
2019-02-23T19:38:29.691Z,102236.44
2019-02-23T19:40:56.867Z,102238.44
2019-02-23T19:43:24.231Z,102241.59
2019-02-23T19:45:51.381Z,102243.97
2019-02-23T19:48:18.718Z,102238.79
2019-02-23T19:50:45.923Z,102237.39
2019-02-23T19:53:12.867Z,102234.55
2019-02-23T19:55:40.265Z,102234.38
2019-02-23T19:58:09.859Z,102230.10
2019-02-23T20:00:36.894Z,102230.34
2019-02-23T20:03:04.107Z,102230.94
2019-02-23T20:05:31.348Z,102231.78
2019-02-23T20:08:00.537Z,102226.49
2019-02-23T20:10:29.061Z,102223.62
2019-02-23T20:12:56.319Z,102231.52
2019-02-23T20:15:24.504Z,102230.86
2019-02-23T20:17:51.439Z,102232.21
2019-02-23T20:20:18.430Z,102232.06
2019-02-23T20:22:45.464Z,102231.41
2019-02-23T20:25:12.529Z,102235.19
2019-02-23T20:27:39.648Z,102232.74
2019-02-23T20:30:06.599Z,102224.95
2019-02-23T20:32:34.857Z,102230.72
2019-02-23T20:35:02.227Z,102232.74
2019-02-23T20:37:30.455Z,102232.50
2019-02-23T20:39:57.417Z,102225.02
2019-02-23T20:42:24.816Z,102229.22
2019-02-23T20:44:52.167Z,102226.35
2019-02-23T20:47:19.230Z,102226.59
2019-02-23T20:49:47.536Z,102221.98
2019-02-23T20:52:16.019Z,102226.41
2019-02-23T20:54:43.894Z,102215.08
2019-02-23T20:57:14.103Z,102210.67
2019-02-23T20:59:41.492Z,102204.84
2019-02-23T21:02:08.447Z,102204.47
2019-02-23T21:04:35.726Z,102202.33
2019-02-23T21:07:02.700Z,102202.02
2019-02-23T21:09:30.138Z,102200.08
2019-02-23T21:11:57.655Z,102197.31
2019-02-23T21:14:25.861Z,102195.52
2019-02-23T21:16:54.355Z,102197.23
2019-02-23T21:19:23.695Z,102195.45
2019-02-23T21:21:50.765Z,101788.20
2019-02-23T21:24:17.851Z,102182.53
2019-02-23T21:26:45.201Z,102179.89
2019-02-23T21:29:12.137Z,102182.56
2019-02-23T21:31:39.580Z,102175.77
2019-02-23T21:34:12.258Z,102180.65
2019-02-23T21:36:46.597Z,102181.69
2019-02-23T21:39:14.741Z,102186.80
2019-02-23T21:41:42.210Z,102193.14
2019-02-23T21:44:09.721Z,102187.50
2019-02-23T21:46:37.063Z,102195.36
2019-02-23T21:49:05.313Z,102195.44
2019-02-23T21:51:33.027Z,102191.51
2019-02-23T21:54:00.378Z,102184.60
2019-02-23T21:56:29.009Z,102175.80
2019-02-23T21:58:56.247Z,102176.91
2019-02-23T22:01:23.354Z,102175.00
2019-02-23T22:03:50.509Z,102170.92
2019-02-23T22:06:19.088Z,102172.86
2019-02-23T22:08:46.159Z,102170.69
2019-02-23T22:11:13.221Z,102172.33
2019-02-23T22:13:40.387Z,102172.71
2019-02-23T22:16:15.224Z,102169.81
2019-02-23T22:18:37.572Z,102179.80
2019-02-23T22:21:04.529Z,102182.37
2019-02-23T22:23:32.093Z,102185.28
2019-02-23T22:25:59.053Z,102183.84
2019-02-23T22:28:26.281Z,102183.30
2019-02-23T22:30:53.388Z,102182.34
2019-02-23T22:33:20.457Z,102180.16
2019-02-23T22:35:49.033Z,102183.67
2019-02-23T22:38:16.052Z,102186.84
2019-02-23T22:40:45.302Z,102186.13
2019-02-23T22:43:13.053Z,102184.11
2019-02-23T22:45:40.006Z,102189.91
2019-02-23T22:48:07.165Z,102189.59
2019-02-23T22:50:35.790Z,102192.58
2019-02-23T22:53:02.898Z,102190.71
2019-02-23T22:55:30.272Z,102185.91
2019-02-23T22:57:57.504Z,102190.70
2019-02-23T23:00:24.479Z,102180.78
2019-02-23T23:02:53.065Z,102185.48
2019-02-23T23:05:20.068Z,102181.86
2019-02-23T23:07:47.090Z,102172.29
2019-02-23T23:10:14.108Z,102177.19
2019-02-23T23:12:41.234Z,102173.88
2019-02-23T23:15:08.386Z,102171.20
2019-02-23T23:17:35.741Z,102160.91
2019-02-23T23:20:02.787Z,102168.67
2019-02-23T23:22:31.551Z,102168.67
2019-02-23T23:24:58.589Z,102164.91
2019-02-23T23:27:27.155Z,102163.19
2019-02-23T23:29:54.185Z,102163.98
2019-02-23T23:32:21.176Z,102168.95
2019-02-23T23:34:48.112Z,102170.59
2019-02-23T23:37:15.129Z,102168.08
2019-02-23T23:39:42.123Z,102172.61
2019-02-23T23:42:09.111Z,102172.00
2019-02-23T23:44:36.554Z,102169.79
2019-02-23T23:47:03.592Z,102173.09
2019-02-23T23:49:30.864Z,102172.72
2019-02-23T23:51:57.936Z,102165.40
2019-02-23T23:54:24.918Z,102159.56
2019-02-23T23:56:51.894Z,102159.26
2019-02-23T23:59:19.226Z,102149.51
